createdAt,value
2022-09-23T00:01:02.555Z,1.90
2022-09-23T00:03:31.127Z,2.22
2022-09-23T00:06:10.758Z,4.38
2022-09-23T00:08:38.367Z,2.22
2022-09-23T00:11:07.763Z,2.03
2022-09-23T00:13:35.734Z,3.85
2022-09-23T00:16:04.859Z,2.42
2022-09-23T00:18:31.778Z,2.97
2022-09-23T00:20:58.558Z,3.95
2022-09-23T00:23:25.295Z,2.30
2022-09-23T00:25:59.740Z,2.88
2022-09-23T00:28:26.628Z,2.75
2022-09-23T00:30:53.386Z,1.88
2022-09-23T00:33:20.446Z,3.78
2022-09-23T00:35:47.812Z,2.83
2022-09-23T00:38:14.612Z,2.25
2022-09-23T00:40:46.165Z,1.65
2022-09-23T00:43:14.682Z,5.07
2022-09-23T00:45:47.497Z,7.68
2022-09-23T00:48:20.137Z,2.47
2022-09-23T00:50:54.278Z,4.68
2022-09-23T00:53:24.146Z,1.90
2022-09-23T00:55:57.315Z,1.88
2022-09-23T00:58:26.959Z,3.25
2022-09-23T01:00:54.595Z,2.63
2022-09-23T01:03:23.016Z,1.73
2022-09-23T01:05:50.355Z,3.83
2022-09-23T01:08:17.642Z,2.08
2022-09-23T01:11:03.461Z,3.30
2022-09-23T01:13:47.893Z,4.13
2022-09-23T01:16:33.459Z,4.65
2022-09-23T01:19:18.263Z,3.28
2022-09-23T01:22:05.013Z,2.20
2022-09-23T01:24:48.238Z,3.90
2022-09-23T01:27:23.256Z,3.53
2022-09-23T01:30:07.438Z,3.08
2022-09-23T01:32:43.283Z,1.10
2022-09-23T01:35:22.815Z,1.63
2022-09-23T01:38:08.403Z,4.60
2022-09-23T01:40:59.898Z,3.22
2022-09-23T01:43:57.225Z,1.35
2022-09-23T01:46:32.335Z,3.40
2022-09-23T01:49:37.351Z,2.50
2022-09-23T01:52:30.023Z,2.00
2022-09-23T01:55:11.215Z,1.90
2022-09-23T01:57:44.786Z,2.67
2022-09-23T02:00:17.785Z,0.60
2022-09-23T02:03:00.475Z,0.63
2022-09-23T02:05:33.908Z,0.70
2022-09-23T02:08:05.055Z,1.98
2022-09-23T02:13:07.765Z,2.35
2022-09-23T02:15:40.408Z,0.80
2022-09-23T02:18:12.480Z,3.55
2022-09-23T02:20:43.406Z,1.95
2022-09-23T02:23:15.799Z,4.35
2022-09-23T02:25:42.503Z,2.30
2022-09-23T02:28:13.644Z,3.75
2022-09-23T02:30:49.215Z,3.97
2022-09-23T02:33:25.207Z,1.77
2022-09-23T02:35:55.537Z,3.20
2022-09-23T02:38:45.297Z,3.63
2022-09-23T02:41:22.654Z,1.95
2022-09-23T02:43:55.330Z,0.77
2022-09-23T02:46:23.263Z,1.48
2022-09-23T02:48:56.929Z,1.73
2022-09-23T02:51:27.979Z,3.72
2022-09-23T02:56:24.631Z,1.58
2022-09-23T02:58:53.564Z,2.55
2022-09-23T03:01:40.818Z,2.08
2022-09-23T03:04:21.838Z,2.95
2022-09-23T03:06:54.483Z,4.82
2022-09-23T03:09:29.865Z,3.22
2022-09-23T03:12:11.268Z,2.72
2022-09-23T03:14:41.035Z,1.55
2022-09-23T03:17:31.796Z,3.03
2022-09-23T03:20:07.376Z,1.17
2022-09-23T03:22:39.943Z,2.05
2022-09-23T03:25:09.841Z,8.48
2022-09-23T03:27:37.350Z,5.95
2022-09-23T03:30:05.459Z,3.38
2022-09-23T03:32:33.030Z,0.77
2022-09-23T03:35:01.703Z,2.25
2022-09-23T03:38:02.719Z,5.18
2022-09-23T03:40:35.645Z,4.28
2022-09-23T03:43:04.695Z,5.50
2022-09-23T03:45:33.645Z,2.03
2022-09-23T03:48:01.488Z,2.60
2022-09-23T03:50:29.045Z,2.35
2022-09-23T03:52:56.060Z,4.90
2022-09-23T03:55:22.818Z,5.38
2022-09-23T03:57:49.606Z,4.93
2022-09-23T04:00:16.365Z,4.15
2022-09-23T04:02:43.934Z,5.55
2022-09-23T04:05:12.338Z,2.33
2022-09-23T04:07:39.539Z,2.22
2022-09-23T04:10:06.791Z,1.75
2022-09-23T04:12:33.532Z,2.17
2022-09-23T04:15:00.272Z,2.22
2022-09-23T04:17:27.083Z,1.98
2022-09-23T04:19:53.805Z,2.20
2022-09-23T04:22:20.591Z,1.77
2022-09-23T04:24:47.293Z,3.13
2022-09-23T04:27:14.080Z,2.55
2022-09-23T04:29:40.778Z,4.20
2022-09-23T04:32:07.564Z,4.40
2022-09-23T04:34:34.297Z,1.42
2022-09-23T04:37:01.008Z,2.15
2022-09-23T04:39:27.723Z,2.00
2022-09-23T04:41:54.534Z,2.35
2022-09-23T04:44:21.359Z,3.83
2022-09-23T04:46:49.386Z,3.40
2022-09-23T04:49:16.404Z,5.30
2022-09-23T04:51:43.766Z,2.78
2022-09-23T04:54:12.012Z,3.40
2022-09-23T04:56:39.823Z,1.35
2022-09-23T04:59:07.601Z,3.45
2022-09-23T05:01:36.362Z,3.40
2022-09-23T05:04:06.088Z,3.17
2022-09-23T05:06:37.207Z,2.17
2022-09-23T05:09:08.137Z,6.35
2022-09-23T05:14:01.988Z,5.57
2022-09-23T05:16:29.464Z,1.23
2022-09-23T05:18:56.332Z,3.05
2022-09-23T05:21:24.572Z,1.90
2022-09-23T05:23:58.902Z,4.25
2022-09-23T05:26:28.008Z,3.15
2022-09-23T05:28:55.224Z,1.85
2022-09-23T05:31:24.176Z,2.67
2022-09-23T05:34:04.856Z,3.03
2022-09-23T05:36:37.967Z,2.15
2022-09-23T05:39:06.794Z,2.72
2022-09-23T05:41:34.098Z,2.42
2022-09-23T05:44:01.615Z,2.92
2022-09-23T05:46:30.000Z,4.20
2022-09-23T05:49:02.127Z,2.28
2022-09-23T05:51:31.372Z,3.25
2022-09-23T05:53:59.008Z,2.25
2022-09-23T05:56:27.552Z,2.42
2022-09-23T05:58:56.796Z,4.80
2022-09-23T06:01:25.581Z,1.65
2022-09-23T06:03:53.498Z,6.88
2022-09-23T06:06:26.160Z,2.47
2022-09-23T06:08:52.888Z,2.03
2022-09-23T06:11:21.483Z,3.53
2022-09-23T06:13:49.423Z,3.25
2022-09-23T06:16:16.567Z,2.03
2022-09-23T06:18:45.139Z,1.05
2022-09-23T06:21:16.802Z,2.60
2022-09-23T06:23:44.341Z,2.83
2022-09-23T06:26:13.658Z,1.63
2022-09-23T06:28:42.926Z,2.92
2022-09-23T06:31:16.844Z,2.58
2022-09-23T06:33:45.239Z,3.33
2022-09-23T06:36:16.193Z,3.35
2022-09-23T06:38:49.338Z,5.05
2022-09-23T06:41:16.241Z,3.92
2022-09-23T06:43:42.966Z,1.92
2022-09-23T06:46:15.984Z,2.78
2022-09-23T06:48:46.445Z,1.85
2022-09-23T06:51:19.226Z,1.80
2022-09-23T06:53:47.436Z,3.95
2022-09-23T06:56:17.388Z,1.92
2022-09-23T06:58:44.149Z,2.20
2022-09-23T07:01:16.147Z,1.95
2022-09-23T07:03:44.484Z,3.38
2022-09-23T07:06:11.630Z,2.58
2022-09-23T07:08:38.433Z,1.92
2022-09-23T07:11:07.253Z,2.85
2022-09-23T07:13:34.347Z,2.72
2022-09-23T07:16:02.245Z,3.33
2022-09-23T07:18:36.673Z,1.50
2022-09-23T07:21:08.964Z,2.97
2022-09-23T07:23:37.804Z,1.95
2022-09-23T07:26:05.397Z,3.17
2022-09-23T07:28:32.582Z,2.78
2022-09-23T07:31:04.532Z,3.92
2022-09-23T07:33:32.948Z,2.38
2022-09-23T07:36:05.395Z,1.98
2022-09-23T07:38:32.202Z,1.77
2022-09-23T07:41:10.308Z,5.53
2022-09-23T07:43:37.911Z,4.05
2022-09-23T07:46:08.364Z,2.42
2022-09-23T07:48:36.147Z,3.80
2022-09-23T07:51:15.348Z,2.40
2022-09-23T07:53:42.174Z,2.22
2022-09-23T07:56:08.890Z,6.10
2022-09-23T07:58:35.642Z,0.43
2022-09-23T08:01:10.316Z,2.90
2022-09-23T08:03:37.750Z,9.02
2022-09-23T08:06:14.003Z,3.33
2022-09-23T08:08:43.787Z,4.43
2022-09-23T08:11:13.382Z,4.20
2022-09-23T08:13:40.828Z,2.45
2022-09-23T08:16:07.675Z,3.70
2022-09-23T08:18:34.816Z,5.10
2022-09-23T08:21:01.835Z,2.78
2022-09-23T08:23:33.374Z,2.28
2022-09-23T08:26:02.498Z,3.28
2022-09-23T08:28:30.932Z,3.13
2022-09-23T08:30:57.744Z,5.43
2022-09-23T08:33:24.673Z,1.45
2022-09-23T08:35:52.442Z,3.03
2022-09-23T08:38:20.106Z,2.58
2022-09-23T08:40:49.669Z,0.70
2022-09-23T08:43:27.634Z,4.10
2022-09-23T08:45:56.145Z,3.30
2022-09-23T08:48:29.879Z,2.58
2022-09-23T08:51:02.625Z,1.35
2022-09-23T08:53:33.269Z,5.35
2022-09-23T08:56:03.491Z,3.78
2022-09-23T08:58:30.880Z,1.40
2022-09-23T09:01:23.776Z,1.75
2022-09-23T09:04:16.833Z,0.95
2022-09-23T09:06:54.058Z,1.80
2022-09-23T09:09:27.499Z,3.30
2022-09-23T09:12:08.995Z,2.38
2022-09-23T09:14:35.783Z,3.88
2022-09-23T09:17:08.209Z,2.30
2022-09-23T09:19:53.685Z,1.83
2022-09-23T09:22:34.222Z,2.97
2022-09-23T09:25:14.466Z,3.53
2022-09-23T09:27:41.528Z,2.72
2022-09-23T09:30:14.558Z,2.70
2022-09-23T09:33:17.827Z,4.00
2022-09-23T09:36:08.939Z,5.32
2022-09-23T09:41:13.114Z,4.07
2022-09-23T09:43:48.500Z,4.03
2022-09-23T09:46:49.337Z,1.73
2022-09-23T09:49:25.526Z,1.45
2022-09-23T09:52:26.849Z,5.47
2022-09-23T09:57:35.126Z,3.45
2022-09-23T10:00:21.731Z,5.47
2022-09-23T10:02:56.653Z,4.68
2022-09-23T10:05:26.889Z,3.13
2022-09-23T10:07:54.390Z,6.45
2022-09-23T10:10:33.673Z,1.45
2022-09-23T10:13:15.009Z,3.28
2022-09-23T10:15:44.904Z,4.45
2022-09-23T10:18:21.163Z,1.92
2022-09-23T10:20:48.373Z,1.40
2022-09-23T10:23:22.134Z,3.03
2022-09-23T10:26:00.343Z,1.52
2022-09-23T10:28:41.258Z,2.03
2022-09-23T10:31:12.662Z,1.33
2022-09-23T10:33:50.466Z,1.55
2022-09-23T10:36:18.140Z,2.22
2022-09-23T10:38:54.133Z,4.07
2022-09-23T10:41:53.292Z,1.05
2022-09-23T10:45:30.874Z,2.60
2022-09-23T10:48:02.263Z,1.58
2022-09-23T10:50:46.083Z,0.98
2022-09-23T10:53:36.541Z,0.55
2022-09-23T10:56:28.500Z,0.38
2022-09-23T10:59:21.522Z,1.23
2022-09-23T11:02:28.815Z,0.80
2022-09-23T11:05:19.042Z,1.52
2022-09-23T11:07:49.978Z,2.22
2022-09-23T11:13:37.436Z,0.70
2022-09-23T11:16:31.708Z,0.57
2022-09-23T11:19:05.110Z,0.52
2022-09-23T11:22:20.175Z,0.98
2022-09-23T11:25:05.306Z,1.50
2022-09-23T11:27:54.350Z,1.15
2022-09-23T11:30:21.469Z,0.73
2022-09-23T11:32:56.893Z,2.30
2022-09-23T11:35:44.803Z,0.60
2022-09-23T11:38:15.381Z,0.57
2022-09-23T11:40:46.672Z,1.35
2022-09-23T11:43:21.717Z,2.17
2022-09-23T11:46:03.273Z,1.42
2022-09-23T11:48:49.971Z,1.95
2022-09-23T11:51:27.120Z,0.30
2022-09-23T11:54:00.707Z,1.13
2022-09-23T11:56:37.639Z,2.13
2022-09-23T11:59:40.471Z,0.35
2022-09-23T12:02:40.985Z,2.60
2022-09-23T12:05:17.903Z,0.95
2022-09-23T12:08:06.417Z,1.75
2022-09-23T12:10:54.732Z,2.35
2022-09-23T12:13:37.949Z,1.02
2022-09-23T12:16:32.645Z,0.30
2022-09-23T12:19:42.931Z,0.40
2022-09-23T12:22:18.592Z,1.48
2022-09-23T12:24:58.259Z,0.50
2022-09-23T12:27:37.974Z,0.35
2022-09-23T12:30:13.040Z,0.88
2022-09-23T12:32:39.901Z,0.57
2022-09-23T12:35:07.792Z,0.40
2022-09-23T12:37:35.640Z,1.08
2022-09-23T12:40:09.926Z,0.47
2022-09-23T12:42:41.517Z,1.55
2022-09-23T12:45:32.590Z,0.80
2022-09-23T12:48:01.085Z,1.55
2022-09-23T12:50:46.541Z,0.20
2022-09-23T12:53:34.938Z,0.50
2022-09-23T12:56:15.366Z,0.95
2022-09-23T12:58:42.196Z,0.30
2022-09-23T13:01:18.562Z,0.88
2022-09-23T13:04:17.275Z,0.70
2022-09-23T13:06:58.751Z,0.17
2022-09-23T13:09:31.160Z,1.05
2022-09-23T13:12:00.738Z,0.40
2022-09-23T13:14:29.083Z,0.22
2022-09-23T13:16:58.415Z,0.55
2022-09-23T13:19:28.256Z,1.13
2022-09-23T13:21:55.007Z,0.85
2022-09-23T13:24:31.311Z,0.80
2022-09-23T13:27:13.310Z,1.05
2022-09-23T13:29:45.487Z,0.77
2022-09-23T13:32:15.146Z,2.40
2022-09-23T13:34:44.324Z,1.42
2022-09-23T13:37:22.725Z,1.00
2022-09-23T13:39:50.285Z,2.28
2022-09-23T13:42:27.217Z,0.43
2022-09-23T13:44:57.860Z,0.52
2022-09-23T13:47:27.975Z,1.23
2022-09-23T13:49:54.877Z,1.70
2022-09-23T13:52:27.303Z,1.20
2022-09-23T13:54:54.300Z,1.67
2022-09-23T13:57:32.128Z,0.38
2022-09-23T14:00:13.952Z,2.63
2022-09-23T14:02:44.422Z,1.15
2022-09-23T14:05:12.728Z,2.22
2022-09-23T14:07:39.753Z,1.90
2022-09-23T14:10:08.167Z,0.47
2022-09-23T14:12:39.274Z,7.05
2022-09-23T14:15:07.313Z,1.60
2022-09-23T14:17:34.066Z,2.97
2022-09-23T14:20:01.110Z,1.90
2022-09-23T14:22:29.247Z,0.88
2022-09-23T14:24:56.792Z,1.20
2022-09-23T14:27:36.185Z,2.90
2022-09-23T14:30:04.050Z,1.50
2022-09-23T14:32:31.144Z,1.67
2022-09-23T14:35:01.077Z,0.50
2022-09-23T14:37:55.655Z,0.43
2022-09-23T14:40:26.305Z,0.30
2022-09-23T14:43:04.933Z,1.25
2022-09-23T14:45:37.744Z,0.80
2022-09-23T14:48:09.672Z,0.73
2022-09-23T14:50:36.960Z,0.95
2022-09-23T14:53:04.669Z,0.82
2022-09-23T14:55:31.695Z,0.90
2022-09-23T14:58:06.510Z,0.22
2022-09-23T15:00:33.290Z,0.65
2022-09-23T15:03:02.165Z,1.33
2022-09-23T15:05:40.119Z,0.40
2022-09-23T15:08:07.575Z,0.30
2022-09-23T15:10:40.075Z,0.25
2022-09-23T15:13:19.247Z,1.60
2022-09-23T15:15:46.441Z,0.32
2022-09-23T15:18:22.875Z,0.47
2022-09-23T15:20:52.344Z,0.85
2022-09-23T15:23:40.944Z,1.02
2022-09-23T15:26:47.270Z,0.88
2022-09-23T15:29:14.194Z,1.83
2022-09-23T15:31:41.362Z,0.98
2022-09-23T15:34:10.769Z,3.30
2022-09-23T15:36:38.610Z,1.75
2022-09-23T15:39:07.169Z,0.52
2022-09-23T15:41:34.048Z,1.77
2022-09-23T15:44:13.835Z,2.83
2022-09-23T15:46:45.732Z,2.92
2022-09-23T15:49:27.130Z,1.52
2022-09-23T15:51:54.510Z,1.73
2022-09-23T15:54:21.237Z,2.97
2022-09-23T15:56:48.010Z,1.65
2022-09-23T15:59:14.772Z,2.00
2022-09-23T16:01:42.390Z,0.40
2022-09-23T16:04:10.305Z,1.05
2022-09-23T16:06:37.645Z,2.17
2022-09-23T16:09:04.450Z,1.27
2022-09-23T16:11:34.058Z,2.38
2022-09-23T16:14:00.882Z,1.05
2022-09-23T16:16:29.141Z,0.90
2022-09-23T16:18:55.968Z,1.80
2022-09-23T16:21:25.253Z,4.72
2022-09-23T16:23:53.474Z,3.45
2022-09-23T16:26:21.734Z,1.33
2022-09-23T16:28:49.629Z,1.15
2022-09-23T16:31:16.918Z,1.42
2022-09-23T16:33:48.136Z,2.50
2022-09-23T16:36:23.656Z,3.90
2022-09-23T16:38:50.998Z,1.42
2022-09-23T16:41:17.940Z,4.93
2022-09-23T16:43:44.766Z,3.28
2022-09-23T16:46:13.072Z,2.45
2022-09-23T16:48:40.946Z,4.22
2022-09-23T16:51:08.946Z,1.95
2022-09-23T16:53:37.674Z,3.00
2022-09-23T16:56:09.546Z,3.38
2022-09-23T16:58:37.176Z,1.42
2022-09-23T17:01:25.066Z,1.42
2022-09-23T17:03:52.320Z,3.00
2022-09-23T17:06:19.453Z,1.80
2022-09-23T17:08:48.267Z,1.75
2022-09-23T17:11:16.590Z,2.05
2022-09-23T17:13:44.287Z,1.85
2022-09-23T17:16:21.645Z,4.78
2022-09-23T17:18:48.992Z,1.40
2022-09-23T17:21:15.843Z,2.25
2022-09-23T17:23:43.187Z,4.75
2022-09-23T17:26:10.126Z,2.65
2022-09-23T17:28:37.010Z,5.20
2022-09-23T17:31:05.670Z,5.47
2022-09-23T17:33:35.381Z,5.13
2022-09-23T17:36:07.270Z,8.48
2022-09-23T17:38:35.339Z,9.93
2022-09-23T17:41:02.374Z,15.95
2022-09-23T17:43:31.458Z,5.85
2022-09-23T17:46:06.669Z,5.53
2022-09-23T17:48:35.334Z,7.20
2022-09-23T17:51:05.082Z,8.27
2022-09-23T17:53:33.733Z,4.50
2022-09-23T17:56:04.264Z,2.17
2022-09-23T17:58:32.915Z,2.92
2022-09-23T18:01:00.068Z,2.42
2022-09-23T18:03:28.553Z,4.40
2022-09-23T18:06:05.050Z,5.22
2022-09-23T18:08:31.974Z,2.80
2022-09-23T18:10:58.706Z,3.38
2022-09-23T18:13:25.481Z,4.72
2022-09-23T18:15:52.275Z,4.45
2022-09-23T18:18:19.045Z,5.50
2022-09-23T18:20:46.066Z,5.47
2022-09-23T18:23:12.889Z,6.95
2022-09-23T18:25:40.174Z,4.43
2022-09-23T18:28:07.113Z,5.88
2022-09-23T18:30:33.854Z,6.95
2022-09-23T18:33:01.683Z,6.20
2022-09-23T18:35:28.555Z,5.60
2022-09-23T18:37:56.260Z,4.10
2022-09-23T18:40:23.084Z,4.20
2022-09-23T18:42:50.414Z,3.00
2022-09-23T18:45:17.205Z,4.93
2022-09-23T18:48:02.211Z,5.32
2022-09-23T18:50:43.172Z,7.45
2022-09-23T18:53:10.546Z,4.65
2022-09-23T18:55:37.931Z,4.05
2022-09-23T18:58:07.358Z,1.55
2022-09-23T19:00:35.031Z,2.13
2022-09-23T19:03:02.136Z,4.38
2022-09-23T19:05:29.141Z,3.00
2022-09-23T19:07:55.966Z,3.17
2022-09-23T19:10:22.676Z,2.25
2022-09-23T19:12:49.477Z,5.78
2022-09-23T19:15:16.589Z,15.60
2022-09-23T19:17:44.162Z,16.55
2022-09-23T19:20:10.907Z,29.42
2022-09-23T19:22:37.680Z,13.43
2022-09-23T19:25:04.710Z,9.77
2022-09-23T19:27:31.503Z,8.55
2022-09-23T19:29:58.241Z,8.35
2022-09-23T19:32:26.778Z,4.20
2022-09-23T19:34:53.719Z,3.65
2022-09-23T19:37:58.991Z,3.30
2022-09-23T19:40:25.800Z,3.28
2022-09-23T19:42:55.252Z,7.45
2022-09-23T19:45:22.598Z,2.50
2022-09-23T19:47:58.296Z,5.07
2022-09-23T19:50:25.133Z,5.32
2022-09-23T19:52:52.226Z,2.60
2022-09-23T19:55:20.098Z,2.90
2022-09-23T19:57:47.340Z,3.55
2022-09-23T20:00:15.259Z,6.10
2022-09-23T20:02:42.596Z,6.53
2022-09-23T20:05:11.990Z,5.20
2022-09-23T20:07:41.133Z,8.95
2022-09-23T20:10:11.836Z,5.28
2022-09-23T20:12:40.791Z,3.75
2022-09-23T20:15:08.136Z,2.25
2022-09-23T20:17:35.254Z,3.92
2022-09-23T20:20:02.237Z,6.03
2022-09-23T20:22:33.143Z,5.65
2022-09-23T20:25:01.566Z,2.80
2022-09-23T20:27:31.751Z,2.75
2022-09-23T20:29:59.421Z,1.83
2022-09-23T20:32:27.109Z,4.15
2022-09-23T20:34:54.428Z,6.68
2022-09-23T20:37:21.670Z,4.80
2022-09-23T20:39:48.484Z,3.70
2022-09-23T20:42:16.429Z,3.88
2022-09-23T20:44:44.950Z,3.47
2022-09-23T20:47:15.907Z,4.95
2022-09-23T20:49:44.296Z,5.18
2022-09-23T20:52:12.651Z,3.33
2022-09-23T20:54:39.829Z,4.53
2022-09-23T20:57:07.058Z,4.82
2022-09-23T20:59:34.614Z,6.38
2022-09-23T21:02:02.319Z,2.67
2022-09-23T21:04:30.260Z,2.40
2022-09-23T21:06:58.287Z,2.38
2022-09-23T21:09:27.489Z,3.13
2022-09-23T21:11:55.476Z,3.13
2022-09-23T21:14:23.147Z,2.97
2022-09-23T21:16:54.947Z,3.13
2022-09-23T21:19:21.839Z,3.35
2022-09-23T21:21:48.711Z,2.53
2022-09-23T21:24:51.097Z,2.13
2022-09-23T21:27:03.476Z,4.75
2022-09-23T21:29:30.260Z,3.55
2022-09-23T21:31:57.272Z,3.28
2022-09-23T21:34:28.168Z,2.67
2022-09-23T21:36:55.510Z,4.10
2022-09-23T21:39:22.262Z,4.20
2022-09-23T21:41:49.978Z,5.20
2022-09-23T21:44:16.753Z,3.53
2022-09-23T21:46:43.604Z,3.67
2022-09-23T21:49:10.369Z,0.70
2022-09-23T21:51:41.152Z,2.85
2022-09-23T21:56:39.046Z,1.88
2022-09-23T21:59:07.744Z,1.15
2022-09-23T22:01:40.946Z,3.60
2022-09-23T22:04:14.513Z,1.30
2022-09-23T22:06:41.705Z,3.40
2022-09-23T22:09:12.557Z,4.28
2022-09-23T22:11:58.757Z,3.85
2022-09-23T22:14:26.552Z,3.58
2022-09-23T22:16:57.570Z,2.28
2022-09-23T22:19:26.968Z,2.65
2022-09-23T22:21:54.040Z,12.20
2022-09-23T22:24:21.025Z,1.10
2022-09-23T22:26:48.011Z,3.75
2022-09-23T22:29:34.470Z,3.03
2022-09-23T22:32:20.924Z,6.30
2022-09-23T22:34:51.363Z,5.03
2022-09-23T22:39:53.260Z,4.95
2022-09-23T22:42:21.928Z,3.20
2022-09-23T22:44:49.200Z,3.25
2022-09-23T22:47:18.125Z,2.22
2022-09-23T22:49:46.408Z,2.63
2022-09-23T22:52:14.990Z,3.08
2022-09-23T22:54:42.351Z,3.58
2022-09-23T22:57:09.805Z,2.55
2022-09-23T22:59:37.527Z,2.40
2022-09-23T23:02:05.176Z,1.42
2022-09-23T23:04:32.260Z,3.08
2022-09-23T23:06:59.093Z,2.97
2022-09-23T23:09:25.985Z,3.03
2022-09-23T23:11:52.770Z,1.92
2022-09-23T23:14:19.812Z,1.40
2022-09-23T23:16:47.533Z,3.17
2022-09-23T23:19:17.178Z,2.08
2022-09-23T23:21:45.302Z,6.28
2022-09-23T23:24:20.840Z,5.60
2022-09-23T23:26:48.350Z,2.95
2022-09-23T23:29:16.461Z,3.30
2022-09-23T23:31:43.693Z,3.40
2022-09-23T23:34:16.283Z,1.98
2022-09-23T23:36:44.041Z,3.40
2022-09-23T23:39:11.078Z,2.60
2022-09-23T23:41:39.613Z,1.20
2022-09-23T23:44:07.842Z,2.60
2022-09-23T23:46:35.845Z,2.03
2022-09-23T23:49:03.291Z,3.00
2022-09-23T23:51:30.196Z,1.20
2022-09-23T23:53:58.915Z,3.83
2022-09-23T23:56:26.875Z,1.67
2022-09-23T23:58:55.476Z,4.28
